LIPO 200150Z AUTO 04003KT 9999 NCD 18/08 Q1026 LIPO 200120Z AUTO 03005KT 9999 NCD 18/08 Q1026 LIPO 200050Z AUTO 03006KT 9999 NCD 18/08 Q1026 LIPO 200020Z AUTO 02007KT 9999 NCD 19/08 Q1026 LIPO 192350Z AUTO 03006KT 9999 NCD 19/08 Q1026 LIPO 192320Z AUTO 03005KT 9999 NCD 19/09 Q1026 LIPO 192250Z AUTO 03005KT 9999 NCD 20/10 Q1026 LIPO 192220Z AUTO 04005KT 9999 NCD 20/09 Q1026 LIPO 192150Z AUTO 03006KT 9999 NCD 20/10 Q1026 LIPO 192120Z AUTO 09006KT 9999 NCD 21/09 Q1026 LIPO 192050Z AUTO 10006KT 9999 NCD 22/10 Q1026 LIPO 192020Z AUTO 03002KT 9999 NCD 23/13 Q1026 LIPO 191950Z AUTO 08002KT 9999 NCD 24/13 Q1025 LIPO 191920Z AUTO 10003KT 9999 NCD 24/12 Q1025 LIPO 191850Z AUTO 11003KT 9999 NCD 25/12 Q1025 LIPO 191820Z AUTO 12003KT 9999 NCD 26/12 Q1025 LIPO 191750Z AUTO 13004KT 9999 NCD 26/12 Q1025 LIPO 191720Z AUTO 13005KT 090V180 9999 NCD 27/12 Q1024 LIPO 191650Z AUTO 15005KT 110V180 9999 NCD 27/11 Q1024 LIPO 191620Z AUTO 11005KT 050V150 9999 NCD 27/11 Q1024 LIPO 191550Z AUTO 12006KT 080V140 9999 NCD 27/11 Q1024 LIPO 191520Z AUTO 17005KT 120V240 9999 NCD 27/11 Q1025 LIPO 191450Z AUTO VRB06KT 9999 NCD 28/11 Q1025 LIPO 191420Z AUTO VRB06KT 9999 NCD 27/11 Q1025 LIPO 191350Z AUTO 11005KT 010V160 9999 NCD 28/11 Q1025 LIPO 191320Z AUTO VRB04KT 9999 NCD 28/11 Q1026 LIPO 191250Z AUTO 11005KT 030V170 9999 NCD 27/10 Q1026 LIPO 191220Z AUTO 12008KT 060V160 9999 NCD 27/10 Q1026 LIPO 191150Z AUTO VRB03KT 9999 NCD 27/11 Q1026 LIPO 191120Z AUTO VRB05KT 9999 NCD 26/11 Q1026 LIPO 191050Z AUTO VRB05KT 9999 NCD 25/11 Q1027 LIPO 191020Z AUTO 15005KT 080V220 9999 NCD 25/10 Q1027 LIPO 190950Z AUTO 14005KT 090V200 9999 NCD 25/10 Q1027 LIPO 190920Z AUTO 17004KT 130V210 9999 NCD 24/10 Q1027 LIPO 190850Z AUTO 10006KT 020V130 9999 // NCD 24/10 Q1027 LIPO 190820Z AUTO 12005KT 030V160 9999 NCD 24/10 Q1027 LIPO 190750Z AUTO 12005KT 040V210 9999 NCD 23/10 Q1027 LIPO 190720Z AUTO 12005KT 070V180 9999 NCD 23/10 Q1027 LIPO 190650Z AUTO 12004KT 070V170 9999 NCD 22/10 Q1027 LIPO 190620Z AUTO 12003KT 080V160 9999 NCD 22/10 Q1027 LIPO 190550Z AUTO 10004KT 9999 FEW086/// 21/10 Q1027 LIPO 190520Z AUTO VRB01KT 9999 NCD 21/11 Q1027 LIPO 190450Z AUTO 04003KT 9999 NCD 19/10 Q1027 LIPO 190420Z AUTO 06003KT 9999 NCD 19/09 Q1027 LIPO 190350Z AUTO 06005KT 020V090 9999 NCD 19/09 Q1026 LIPO 190320Z AUTO 04005KT 9999 FEW088/// 19/09 Q1026 LIPO 190250Z AUTO 04006KT 360V070 9999 FEW093/// 19/10 Q1026 LIPO 190220Z AUTO 04005KT 9999 FEW160/// 19/10 Q1026 LIPO 190150Z AUTO 04007KT 9999 BKN160/// 20/10 Q1026 LIPO 190120Z AUTO 03006KT 9999 FEW120/// BKN150/// 20/10 Q1026 LIPO 190050Z AUTO 05006KT 9999 BKN100/// 20/10 Q1026 LIPO 190020Z AUTO 04007KT 010V070 9999 FEW089/// BKN100/// 20/10 Q1026 LIPO 182350Z AUTO 03007KT 9999 BKN100/// 20/10 Q1026 LIPO 182320Z AUTO 04006KT 9999 FEW100/// 20/11 Q1025 LIPO 182250Z AUTO 04007KT 9999 SCT130/// 20/11 Q1025 LIPO 182220Z AUTO 04007KT 9999 FEW084/// BKN120/// 20/12 Q1025 LIPO 182150Z AUTO 06005KT 010V080 9999 SCT100/// 21/12 Q1025 LIPO 182120Z AUTO 10007KT 9999 NCD 21/12 Q1025 LIPO 182050Z AUTO 09006KT 9999 NCD 21/12 Q1025 LIPO 182020Z AUTO 10006KT 9999 NCD 22/12 Q1024 LIPO 181950Z AUTO 09007KT 9999 NCD 23/11 Q1024 LIPO 181920Z AUTO 09007KT 9999 NCD 24/11 Q1023 LIPO 181850Z AUTO 09007KT 9999 NCD 24/12 Q1023 LIPO 181820Z AUTO 10011KT 9999 NCD 25/12 Q1022 LIPO 181750Z AUTO 09009KT 9999 NCD 26/12 Q1022 LIPO 181720Z AUTO 09010KT 9999 NCD 26/13 Q1022 LIPO 181650Z AUTO 09012KT 9999 NCD 27/13 Q1021 LIPO 181620Z AUTO 10010KT 060V120 9999 NCD 27/14 Q1021 LIPO 181550Z AUTO 11011KT 080V140 9999 NCD 28/14 Q1021 LIPO 181520Z AUTO 11010KT 9999 FEW055/// 28/14 Q1021 LIPO 181450Z AUTO 11010KT 090V160 9999 FEW050/// 28/15 Q1021 LIPO 181420Z AUTO 10009KT 060V140 9999 BKN051/// 28/14 Q1021

METAR Messwerte "BRESCIA/MONTICHI" LIPO

Zurück zur Übersicht

Ortsname
Ländercode / m ü. NN
Zeit Temperatur Taupunkt Rel.
Luftfeuchte
Luftdruck:
Altimeter
NN
Station
Wind in Beaufort
(Knoten)
Sichtweite
(Meter)
Wolken
(Meter über Grund)
Wettererscheinung
BRESCIA/MONTICHI
IT 104
Fr 20.05. 03:5018852 %1026
1026
1013
NO 2 (3)>= 10000  
BRESCIA/MONTICHI
IT 104
Fr 20.05. 03:2018852 %1026
1026
1013
NNO 2 (5)>= 10000  
BRESCIA/MONTICHI
IT 104
Fr 20.05. 02:5018852 %1026
1026
1013
NNO 2 (6)>= 10000  
BRESCIA/MONTICHI
IT 104
Fr 20.05. 02:2019849 %1026
1026
1013
NNO 3 (7)>= 10000  
BRESCIA/MONTICHI
IT 104
Fr 20.05. 01:5019849 %1026
1026
1013
NNO 2 (6)>= 10000  
BRESCIA/MONTICHI
IT 104
Fr 20.05. 01:2019952 %1026
1026
1013
NNO 2 (5)>= 10000  
BRESCIA/MONTICHI
IT 104
Fr 20.05. 00:50201053 %1026
1026
1013
NNO 2 (5)>= 10000  
BRESCIA/MONTICHI
IT 104
Fr 20.05. 00:2020949 %1026
1026
1013
NO 2 (5)>= 10000  
BRESCIA/MONTICHI
IT 104
Do 19.05. 23:50201053 %1026
1026
1013
NNO 2 (6)>= 10000  
BRESCIA/MONTICHI
IT 104
Do 19.05. 23:2021946 %1026
1026
1013
O 2 (6)>= 10000  
BRESCIA/MONTICHI
IT 104
Do 19.05. 22:50221046 %1026
1026
1013
O 2 (6)>= 10000  
BRESCIA/MONTICHI
IT 104
Do 19.05. 22:20231353 %1026
1026
1013
NNO 1 (2)>= 10000  
BRESCIA/MONTICHI
IT 104
Do 19.05. 21:50241350 %1025
1025
1012
O 1 (2)>= 10000  
BRESCIA/MONTICHI
IT 104
Do 19.05. 21:20241247 %1025
1025
1012
O 2 (3)>= 10000  
BRESCIA/MONTICHI
IT 104
Do 19.05. 20:50251244 %1025
1025
1012
OSO 2 (3)>= 10000  
BRESCIA/MONTICHI
IT 104
Do 19.05. 20:20261242 %1025
1025
1012
OSO 2 (3)>= 10000  
BRESCIA/MONTICHI
IT 104
Do 19.05. 19:50261242 %1025
1025
1012
SO 2 (4)>= 10000  
BRESCIA/MONTICHI
IT 104
Do 19.05. 19:20271239 %1024
1024
1011
SO 2 (5)
O - S
>= 10000  
BRESCIA/MONTICHI
IT 104
Do 19.05. 18:50271137 %1024
1024
1011
SSO 2 (5)
OSO - S
>= 10000  
BRESCIA/MONTICHI
IT 104
Do 19.05. 18:20271137 %1024
1024
1011
OSO 2 (5)
NO - SSO
>= 10000  
BRESCIA/MONTICHI
IT 104
Do 19.05. 17:50271137 %1024
1024
1011
OSO 2 (6)
O - SO
>= 10000  
BRESCIA/MONTICHI
IT 104
Do 19.05. 17:20271137 %1025
1025
1012
S 2 (5)
OSO - WSW
>= 10000  
BRESCIA/MONTICHI
IT 104
Do 19.05. 16:50281135 %1025
1024
1012
Uml 2 (6)>= 10000  
BRESCIA/MONTICHI
IT 104
Do 19.05. 16:20271137 %1025
1025
1012
Uml 2 (6)>= 10000  
BRESCIA/MONTICHI
IT 104
Do 19.05. 15:50281135 %1025
1024
1012
OSO 2 (5)
N - SSO
>= 10000  
BRESCIA/MONTICHI
IT 104
Do 19.05. 15:20281135 %1026
1025
1013
Uml 2 (4)>= 10000  
BRESCIA/MONTICHI
IT 104
Do 19.05. 14:50271034 %1026
1026
1013
OSO 2 (5)
NNO - S
>= 10000  
BRESCIA/MONTICHI
IT 104
Do 19.05. 14:20271034 %1026
1026
1013
OSO 3 (8)
ONO - SSO
>= 10000  
BRESCIA/MONTICHI
IT 104
Do 19.05. 13:50271137 %1026
1026
1013
Uml 2 (3)>= 10000  
BRESCIA/MONTICHI
IT 104
Do 19.05. 13:20261139 %1026
1026
1013
Uml 2 (5)>= 10000  
BRESCIA/MONTICHI
IT 104
Do 19.05. 12:50251141 %1027
1027
1014
Uml 2 (5)>= 10000  
BRESCIA/MONTICHI
IT 104
Do 19.05. 12:20251039 %1027
1027
1014
SSO 2 (5)
O - SW
>= 10000  
BRESCIA/MONTICHI
IT 104
Do 19.05. 11:50251039 %1027
1027
1014
SO 2 (5)
O - SSW
>= 10000  
BRESCIA/MONTICHI
IT 104
Do 19.05. 11:20241041 %1027
1027
1014
S 2 (4)
SO - SSW
>= 10000  
BRESCIA/MONTICHI
IT 104
Do 19.05. 10:50241041 %1027
1027
1014
O 2 (6)
NNO - SO
>= 10000  
BRESCIA/MONTICHI
IT 104
Do 19.05. 10:20241041 %1027
1027
1014
OSO 2 (5)
NNO - SSO
>= 10000  
BRESCIA/MONTICHI
IT 104
Do 19.05. 09:50231044 %1027
1027
1014
OSO 2 (5)
NO - SSW
>= 10000  
BRESCIA/MONTICHI
IT 104
Do 19.05. 09:20231044 %1027
1027
1014
OSO 2 (5)
ONO - S
>= 10000  
BRESCIA/MONTICHI
IT 104
Do 19.05. 08:50221046 %1027
1027
1014
OSO 2 (4)
ONO - S
>= 10000  
BRESCIA/MONTICHI
IT 104
Do 19.05. 08:20221046 %1027
1027
1014
OSO 2 (3)
O - SSO
>= 10000  
BRESCIA/MONTICHI
IT 104
Do 19.05. 07:50211049 %1027
1027
1014
O 2 (4)>= 10000Leicht bewölkt (2600) 
BRESCIA/MONTICHI
IT 104
Do 19.05. 07:20211153 %1027
1027
1014
Uml 1 (1)>= 10000  
BRESCIA/MONTICHI
IT 104
Do 19.05. 06:50191056 %1027
1027
1014
NO 2 (3)>= 10000  
BRESCIA/MONTICHI
IT 104
Do 19.05. 06:2019952 %1027
1027
1014
ONO 2 (3)>= 10000  
BRESCIA/MONTICHI
IT 104
Do 19.05. 05:5019952 %1026
1026
1013
ONO 2 (5)
NNO - O
>= 10000  
BRESCIA/MONTICHI
IT 104
Do 19.05. 05:2019952 %1026
1026
1013
NO 2 (5)>= 10000Leicht bewölkt (2700) 
BRESCIA/MONTICHI
IT 104
Do 19.05. 04:50191056 %1026
1026
1013
NO 2 (6)
N - ONO
>= 10000Leicht bewölkt (2800) 
BRESCIA/MONTICHI
IT 104
Do 19.05. 04:20191056 %1026
1026
1013
NO 2 (5)>= 10000Leicht bewölkt (4900) 
BRESCIA/MONTICHI
IT 104
Do 19.05. 03:50201053 %1026
1026
1013
NO 3 (7)>= 10000Stark bewölkt (4900) 
BRESCIA/MONTICHI
IT 104
Do 19.05. 03:20201053 %1026
1026
1013
NNO 2 (6)>= 10000Stark bewölkt (4600)
Leicht bewölkt (3700)
 
BRESCIA/MONTICHI
IT 104
Do 19.05. 02:50201053 %1026
1026
1013
NO 2 (6)>= 10000Stark bewölkt (3000) 
BRESCIA/MONTICHI
IT 104
Do 19.05. 02:20201053 %1026
1026
1013
NO 3 (7)
N - ONO
>= 10000Stark bewölkt (3000)
Leicht bewölkt (2700)
 
BRESCIA/MONTICHI
IT 104
Do 19.05. 01:50201053 %1026
1026
1013
NNO 3 (7)>= 10000Stark bewölkt (3000) 
BRESCIA/MONTICHI
IT 104
Do 19.05. 01:20201156 %1025
1025
1012
NO 2 (6)>= 10000Leicht bewölkt (3000) 
BRESCIA/MONTICHI
IT 104
Do 19.05. 00:50201156 %1025
1025
1012
NO 3 (7)>= 10000Wolkig (4000) 
BRESCIA/MONTICHI
IT 104
Do 19.05. 00:20201260 %1025
1025
1012
NO 3 (7)>= 10000Stark bewölkt (3700)
Leicht bewölkt (2600)
 
BRESCIA/MONTICHI
IT 104
Mi 18.05. 23:50211256 %1025
1025
1012
ONO 2 (5)
N - O
>= 10000Wolkig (3000) 
BRESCIA/MONTICHI
IT 104
Mi 18.05. 23:20211256 %1025
1025
1012
O 3 (7)>= 10000  
BRESCIA/MONTICHI
IT 104
Mi 18.05. 22:50211256 %1025
1025
1012
O 2 (6)>= 10000  
BRESCIA/MONTICHI
IT 104
Mi 18.05. 22:20221253 %1024
1024
1011
O 2 (6)>= 10000  
BRESCIA/MONTICHI
IT 104
Mi 18.05. 21:50231147 %1024
1024
1011
O 3 (7)>= 10000  
BRESCIA/MONTICHI
IT 104
Mi 18.05. 21:20241144 %1023
1023
1010
O 3 (7)>= 10000  
BRESCIA/MONTICHI
IT 104
Mi 18.05. 20:50241247 %1023
1023
1010
O 3 (7)>= 10000  
BRESCIA/MONTICHI
IT 104
Mi 18.05. 20:20251244 %1022
1022
1009
O 4 (11)>= 10000  
BRESCIA/MONTICHI
IT 104
Mi 18.05. 19:50261242 %1022
1022
1009
O 3 (9)>= 10000  
BRESCIA/MONTICHI
IT 104
Mi 18.05. 19:20261345 %1022
1022
1009
O 3 (10)>= 10000  
BRESCIA/MONTICHI
IT 104
Mi 18.05. 18:50271342 %1021
1021
1008
O 4 (12)>= 10000  
BRESCIA/MONTICHI
IT 104
Mi 18.05. 18:20271445 %1021
1021
1008
O 3 (10)
ONO - OSO
>= 10000  
BRESCIA/MONTICHI
IT 104
Mi 18.05. 17:50281442 %1021
1020
1008
OSO 4 (11)
O - SO
>= 10000  
BRESCIA/MONTICHI
IT 104
Mi 18.05. 17:20281442 %1021
1020
1008
OSO 3 (10)>= 10000Leicht bewölkt (1700) 
BRESCIA/MONTICHI
IT 104
Mi 18.05. 16:50281545 %1021
1020
1008
OSO 3 (10)
O - SSO
>= 10000Leicht bewölkt (1500) 
BRESCIA/MONTICHI
IT 104
Mi 18.05. 16:20281442 %1021
1020
1008
O 3 (9)
ONO - SO
>= 10000Stark bewölkt (1600) 

Altimeter: Einstellung am Altimeter (Höhenmesser), die Höhe 0 muss auf diesen Luftdruckwert zeigen, damit das Gerät die Stationshöhe richtig anzeigt.

NN: Luftdruck reduziert auf "Normal Null", auf Meereshöhe, dieser von der Temperatur abhängige Wert wird bisweilen unkorrekt einfach als "Luftdruck" bezeichnet. Eigentlich nur eine fiktive Größe, die es erlaubt, Stationen auf unterschiedlichen Höhen miteinander zu vergleichen.

Station: Realer Luftdruck an der Station.